Jose Maria Córdova International Airport
SKRG : now visible

Airfield :











YOU CAN JOIN US ON...

 
LOGIN :

Register | Disclaimer

   EN    FR    IT 

 









Legend :    VFR   Marginal VFR   IFR   Intensive IFR   Very Intensive IFR
Visi :
Ceiling :
>= 8 km
>= 3000ft
5 to 8 km
1000 to 3000 ft
1500m to 5 km
500 to 1000 ft
800 to 1500m
200 to 500 ft
< 800m
< 200 ft
Symbols :   Thunderstorms  Fog  Heavy snow  Heavy precipitations  Wind > 20 kt






- Airport Elevation : 6955 ft
- IATA code : MDE


SKRG - Jose Maria Córdova International

CURRENT METAR :
  • 301600Z 05007KT 4500 HZ BKN012 18/15 A3032 NOSIG

EXPIRED METARs :
  • 301400Z 08004KT 4000 BR BKN008 17/16 A3034 BECMG FM1545 5000 HZ

TAF TAF SKRG
Valid from the 30 at 12:00 until the 31 at 12:00 UTC


301030Z 3012/3112 VRB02KT 4000 BR DZ BKN008 SCT070
BECMG 3015/3017 09010KT 9999 NSW BKN018
TEMPO 3019/3023 5000 DZRA SCT020CB SCT080
TEMPO 3100/3104 DZ SCT015
BECMG 3104/3105 VRB02KT TX22/3019Z TN13/3111Z



MET'MAP, your aeronautical weather chart ! - Copyright ORBIFLY December 2007 - Disclaimer

ORBIFLY MET'MAP TEAM :

Programming & Development : Alexandra Zaïnal
Concept & original design : Baudouin d'Aumeries
Assistance for programming : Marc-Olivier Méhu
Technical & hardware support : Manuel Goepfert

Contact : metmap@orbifly.com




SOURCES & CREDITS :

   NOAA       Earth
Advisory